Terminal Aerodrome Forecast
Issued by NWS Newport/Morehead City, NC

Home | Current Version | Previous Version | Text Only | Print | Product List | Glossary Off
Versions: 1 2 3 4 5 6 7 8 9 10 11 12 13

000
FTUS42 KMHX 181122
TAFEWN
TAF
KEWN 181122Z 1812/1912 32010G19KT P6SM BKN080
     FM181400 28009G17KT P6SM SKC
     FM182200 27004KT P6SM SKC=

USA.gov is the U.S. government's official web portal to all federal, state and local government web resources and services.